createdAt,value
2018-04-29T00:04:13.634Z,21.5
2018-04-29T00:14:12.870Z,21.4
2018-04-29T00:24:12.052Z,21.4
2018-04-29T00:34:11.326Z,21.6
2018-04-29T00:44:10.825Z,21.8
2018-04-29T00:54:09.722Z,21.8
2018-04-29T01:04:08.960Z,21.6
2018-04-29T01:14:08.227Z,21.4
2018-04-29T01:24:07.708Z,21.3
2018-04-29T01:34:06.652Z,21.2
2018-04-29T01:44:05.876Z,21
2018-04-29T01:54:05.052Z,20.9
2018-04-29T02:04:04.550Z,20.8
2018-04-29T02:14:03.536Z,20.7
2018-04-29T02:24:02.782Z,20.6
2018-04-29T02:34:02.003Z,20.6
2018-04-29T02:44:01.239Z,20.6
2018-04-29T02:54:00.371Z,20.4
2018-04-29T03:03:59.677Z,20.4
2018-04-29T03:13:58.827Z,20.3
2018-04-29T03:23:58.036Z,20.2
2018-04-29T03:33:57.242Z,20.2
2018-04-29T03:43:56.478Z,20.1
2018-04-29T03:53:55.963Z,20.1
2018-04-29T04:03:55.255Z,20
2018-04-29T04:13:54.159Z,20
2018-04-29T04:23:53.385Z,20.1
2018-04-29T04:33:52.556Z,20.1
2018-04-29T04:43:51.758Z,20.3
2018-04-29T04:53:50.991Z,20.4
2018-04-29T05:03:50.267Z,20.7
2018-04-29T05:13:49.586Z,21
2018-04-29T05:23:48.632Z,21.3
2018-04-29T05:33:47.883Z,21.6
2018-04-29T05:43:47.143Z,21.8
2018-04-29T05:53:46.300Z,22.1
2018-04-29T06:03:45.590Z,22.3
2018-04-29T06:13:44.780Z,22.6
2018-04-29T06:23:43.966Z,22.8
2018-04-29T06:33:43.223Z,22.9
2018-04-29T06:43:42.672Z,22.9
2018-04-29T06:53:41.621Z,23
2018-04-29T07:03:41.232Z,23.2
2018-04-29T07:13:40.051Z,23.3
2018-04-29T07:23:39.600Z,23.4
2018-04-29T07:33:38.497Z,23.6
2018-04-29T07:43:38.058Z,23.9
2018-04-29T07:53:37.220Z,24.1
2018-04-29T08:03:36.226Z,24.3
2018-04-29T08:13:35.391Z,24.4
2018-04-29T08:23:34.594Z,24.5
2018-04-29T08:33:33.819Z,24.5
2018-04-29T08:43:33.124Z,24.6
2018-04-29T08:53:32.299Z,24.6
2018-04-29T09:03:31.489Z,24.6
2018-04-29T09:13:30.735Z,24.7
2018-04-29T09:23:29.955Z,24.7
2018-04-29T09:33:29.179Z,24.7
2018-04-29T09:43:28.913Z,24.8
2018-04-29T09:53:27.579Z,24.8
2018-04-29T10:03:26.800Z,24.8
2018-04-29T10:13:26.064Z,24.8
2018-04-29T10:23:25.246Z,24.8
2018-04-29T10:33:24.470Z,24.8
2018-04-29T10:43:23.733Z,24.8
2018-04-29T10:53:22.908Z,24.8
2018-04-29T11:03:22.145Z,24.8
2018-04-29T11:13:21.401Z,24.9
2018-04-29T11:23:20.648Z,24.9
2018-04-29T11:33:19.853Z,24.9
2018-04-29T11:43:19.016Z,24.9
2018-04-29T11:53:18.247Z,24.9
2018-04-29T12:03:17.461Z,24.9
2018-04-29T12:13:16.986Z,24.9
2018-04-29T12:23:16.277Z,24.9
2018-04-29T12:33:15.125Z,24.9
2018-04-29T12:43:14.463Z,24.9
2018-04-29T12:53:13.610Z,24.9
2018-04-29T13:03:12.841Z,24.9
2018-04-29T13:13:12.069Z,24.9
2018-04-29T13:23:11.294Z,24.9
2018-04-29T13:33:10.446Z,24.9
2018-04-29T13:43:09.672Z,24.9
2018-04-29T13:53:08.913Z,24.9
2018-04-29T14:03:08.110Z,24.9
2018-04-29T14:13:07.440Z,24.9
2018-04-29T14:23:06.873Z,24.9
2018-04-29T14:33:05.836Z,24.8
2018-04-29T14:43:05.022Z,24.7
2018-04-29T14:53:04.303Z,24.6
2018-04-29T15:03:03.475Z,24.6
2018-04-29T15:13:02.702Z,24.5
2018-04-29T15:23:01.914Z,24.4
2018-04-29T15:33:01.143Z,24.4
2018-04-29T15:43:00.412Z,24.4
2018-04-29T15:52:59.604Z,24.3
2018-04-29T16:02:58.887Z,24.3
2018-04-29T16:12:58.378Z,24.2
2018-04-29T16:22:57.278Z,24.1
2018-04-29T16:32:56.477Z,24.1
2018-04-29T16:42:55.760Z,24
2018-04-29T16:52:54.931Z,23.9
2018-04-29T17:02:54.208Z,23.8
2018-04-29T17:12:53.477Z,23.7
2018-04-29T17:22:52.903Z,23.7
2018-04-29T17:32:51.889Z,23.6
2018-04-29T17:42:51.112Z,23.6
2018-04-29T17:52:50.330Z,23.7
2018-04-29T18:02:49.527Z,23.6
2018-04-29T18:12:48.784Z,23.6
2018-04-29T18:22:47.954Z,23.6
2018-04-29T18:32:47.175Z,23.6
2018-04-29T18:42:46.469Z,23.5
2018-04-29T18:52:45.977Z,23.5
2018-04-29T19:02:44.848Z,23.5
2018-04-29T19:12:44.080Z,23.4
2018-04-29T19:22:43.348Z,23.6
2018-04-29T19:32:42.572Z,23.6
2018-04-29T19:42:42.077Z,23.6
2018-04-29T19:52:40.971Z,23.1
2018-04-29T20:02:40.260Z,22.6
2018-04-29T20:12:39.460Z,22.3
2018-04-29T20:22:38.718Z,21.9
2018-04-29T20:32:37.862Z,21.8
2018-04-29T20:42:37.079Z,21.8
2018-04-29T20:52:36.375Z,21.7
2018-04-29T21:02:35.513Z,21.7
2018-04-29T21:12:34.833Z,21.6
2018-04-29T21:22:33.987Z,21.5
2018-04-29T21:32:33.276Z,21.4
2018-04-29T21:42:32.438Z,21.1
2018-04-29T21:52:31.678Z,20.9
2018-04-29T22:02:31.203Z,20.9
2018-04-29T22:12:30.408Z,20.9
2018-04-29T22:22:29.598Z,20.8
2018-04-29T22:32:28.503Z,20.8
2018-04-29T22:42:27.732Z,20.7
2018-04-29T22:52:26.993Z,20.6
2018-04-29T23:02:26.511Z,20.6
2018-04-29T23:12:25.473Z,20.4
2018-04-29T23:22:24.593Z,20.4
2018-04-29T23:32:24.110Z,20.4
2018-04-29T23:42:23.031Z,20.3
2018-04-29T23:52:22.322Z,20.3
